sensor_id;sensor_type;location;lat;lon;timestamp;temperature;humidity
15386;DHT22;7791;47.246;9.648;2022-12-15T00:00:49;3.40;99.90
15386;DHT22;7791;47.246;9.648;2022-12-15T00:03:14;3.50;99.90
15386;DHT22;7791;47.246;9.648;2022-12-15T00:05:40;3.50;99.90
15386;DHT22;7791;47.246;9.648;2022-12-15T00:08:06;3.50;99.90
15386;DHT22;7791;47.246;9.648;2022-12-15T00:10:32;3.60;99.90
15386;DHT22;7791;47.246;9.648;2022-12-15T00:12:58;3.30;99.90
15386;DHT22;7791;47.246;9.648;2022-12-15T00:15:24;3.40;99.90
15386;DHT22;7791;47.246;9.648;2022-12-15T00:17:51;3.40;99.90
15386;DHT22;7791;47.246;9.648;2022-12-15T00:20:17;3.40;99.90
15386;DHT22;7791;47.246;9.648;2022-12-15T00:22:42;3.50;99.90
15386;DHT22;7791;47.246;9.648;2022-12-15T00:25:08;3.60;99.90
15386;DHT22;7791;47.246;9.648;2022-12-15T00:27:34;3.60;99.90
15386;DHT22;7791;47.246;9.648;2022-12-15T00:30:00;3.60;99.90
15386;DHT22;7791;47.246;9.648;2022-12-15T00:32:25;3.70;99.90
15386;DHT22;7791;47.246;9.648;2022-12-15T00:34:52;3.60;99.90
15386;DHT22;7791;47.246;9.648;2022-12-15T00:37:18;3.70;99.90
15386;DHT22;7791;47.246;9.648;2022-12-15T00:39:44;3.60;99.90
15386;DHT22;7791;47.246;9.648;2022-12-15T00:42:19;3.60;99.90
15386;DHT22;7791;47.246;9.648;2022-12-15T00:44:44;3.60;99.90
15386;DHT22;7791;47.246;9.648;2022-12-15T00:47:10;3.50;99.90
15386;DHT22;7791;47.246;9.648;2022-12-15T00:49:36;3.50;99.90
15386;DHT22;7791;47.246;9.648;2022-12-15T00:52:03;3.60;99.90
15386;DHT22;7791;47.246;9.648;2022-12-15T00:54:29;3.60;99.90
15386;DHT22;7791;47.246;9.648;2022-12-15T00:56:55;3.40;99.90
15386;DHT22;7791;47.246;9.648;2022-12-15T00:59:21;3.30;99.90
15386;DHT22;7791;47.246;9.648;2022-12-15T01:01:46;3.20;99.90
15386;DHT22;7791;47.246;9.648;2022-12-15T01:04:12;3.30;99.90
15386;DHT22;7791;47.246;9.648;2022-12-15T01:06:39;3.20;99.90
15386;DHT22;7791;47.246;9.648;2022-12-15T01:09:07;3.30;99.90
15386;DHT22;7791;47.246;9.648;2022-12-15T01:11:33;3.50;99.90
15386;DHT22;7791;47.246;9.648;2022-12-15T01:13:58;3.60;99.90
15386;DHT22;7791;47.246;9.648;2022-12-15T01:16:24;3.70;99.90
15386;DHT22;7791;47.246;9.648;2022-12-15T01:18:50;3.70;99.90
15386;DHT22;7791;47.246;9.648;2022-12-15T01:21:15;3.70;99.90
15386;DHT22;7791;47.246;9.648;2022-12-15T01:23:41;3.80;99.90
15386;DHT22;7791;47.246;9.648;2022-12-15T01:26:08;3.70;99.90
15386;DHT22;7791;47.246;9.648;2022-12-15T01:28:34;3.70;99.90
15386;DHT22;7791;47.246;9.648;2022-12-15T01:31:00;3.60;99.90
15386;DHT22;7791;47.246;9.648;2022-12-15T01:33:26;3.50;99.90
15386;DHT22;7791;47.246;9.648;2022-12-15T01:35:57;3.60;99.90
15386;DHT22;7791;47.246;9.648;2022-12-15T01:38:25;3.60;99.90
15386;DHT22;7791;47.246;9.648;2022-12-15T01:40:53;3.60;99.90
15386;DHT22;7791;47.246;9.648;2022-12-15T01:43:23;3.40;99.90
15386;DHT22;7791;47.246;9.648;2022-12-15T01:46:02;3.30;99.90
15386;DHT22;7791;47.246;9.648;2022-12-15T01:48:34;3.30;99.90
15386;DHT22;7791;47.246;9.648;2022-12-15T01:51:10;3.40;99.90
15386;DHT22;7791;47.246;9.648;2022-12-15T01:53:40;3.40;99.90
15386;DHT22;7791;47.246;9.648;2022-12-15T01:56:08;3.50;99.90
15386;DHT22;7791;47.246;9.648;2022-12-15T01:58:40;3.50;99.90
15386;DHT22;7791;47.246;9.648;2022-12-15T02:01:06;3.40;99.90
15386;DHT22;7791;47.246;9.648;2022-12-15T02:03:32;3.40;99.90
15386;DHT22;7791;47.246;9.648;2022-12-15T02:05:59;3.40;99.90
15386;DHT22;7791;47.246;9.648;2022-12-15T02:08:26;3.50;99.90
15386;DHT22;7791;47.246;9.648;2022-12-15T02:14:00;3.50;99.90
15386;DHT22;7791;47.246;9.648;2022-12-15T02:16:35;3.50;99.90
15386;DHT22;7791;47.246;9.648;2022-12-15T02:19:17;3.50;99.90
15386;DHT22;7791;47.246;9.648;2022-12-15T02:21:55;3.50;99.90
15386;DHT22;7791;47.246;9.648;2022-12-15T02:24:42;3.40;99.90
15386;DHT22;7791;47.246;9.648;2022-12-15T02:27:23;3.40;99.90
15386;DHT22;7791;47.246;9.648;2022-12-15T02:30:14;3.20;99.90
15386;DHT22;7791;47.246;9.648;2022-12-15T02:32:45;3.20;99.90
15386;DHT22;7791;47.246;9.648;2022-12-15T02:35:19;3.30;99.90
15386;DHT22;7791;47.246;9.648;2022-12-15T02:37:47;3.30;99.90
15386;DHT22;7791;47.246;9.648;2022-12-15T02:40:13;3.20;99.90
15386;DHT22;7791;47.246;9.648;2022-12-15T02:42:42;3.10;99.90
15386;DHT22;7791;47.246;9.648;2022-12-15T02:45:13;3.10;99.90
15386;DHT22;7791;47.246;9.648;2022-12-15T02:47:43;3.00;99.90
15386;DHT22;7791;47.246;9.648;2022-12-15T02:50:31;3.00;99.90
15386;DHT22;7791;47.246;9.648;2022-12-15T02:53:09;2.80;99.90
15386;DHT22;7791;47.246;9.648;2022-12-15T02:55:54;2.80;99.90
15386;DHT22;7791;47.246;9.648;2022-12-15T02:58:27;2.80;99.90
15386;DHT22;7791;47.246;9.648;2022-12-15T03:00:58;2.70;99.90
15386;DHT22;7791;47.246;9.648;2022-12-15T03:03:28;2.60;99.90
15386;DHT22;7791;47.246;9.648;2022-12-15T03:05:56;2.40;99.90
15386;DHT22;7791;47.246;9.648;2022-12-15T03:08:22;2.40;99.90
15386;DHT22;7791;47.246;9.648;2022-12-15T03:10:50;2.40;99.90
15386;DHT22;7791;47.246;9.648;2022-12-15T03:13:17;2.20;99.90
15386;DHT22;7791;47.246;9.648;2022-12-15T03:15:43;2.20;99.90
15386;DHT22;7791;47.246;9.648;2022-12-15T03:18:10;2.30;99.90
15386;DHT22;7791;47.246;9.648;2022-12-15T03:20:36;2.40;99.90
15386;DHT22;7791;47.246;9.648;2022-12-15T03:23:01;2.40;99.90
15386;DHT22;7791;47.246;9.648;2022-12-15T03:25:27;2.50;99.90
15386;DHT22;7791;47.246;9.648;2022-12-15T03:27:53;2.40;99.90
15386;DHT22;7791;47.246;9.648;2022-12-15T03:30:19;2.50;99.90
15386;DHT22;7791;47.246;9.648;2022-12-15T03:32:44;2.60;99.90
15386;DHT22;7791;47.246;9.648;2022-12-15T03:35:12;2.50;99.90
15386;DHT22;7791;47.246;9.648;2022-12-15T03:37:38;2.30;99.90
15386;DHT22;7791;47.246;9.648;2022-12-15T03:40:05;2.20;99.90
15386;DHT22;7791;47.246;9.648;2022-12-15T03:42:34;2.40;99.90
15386;DHT22;7791;47.246;9.648;2022-12-15T03:44:59;2.50;99.90
15386;DHT22;7791;47.246;9.648;2022-12-15T03:47:25;2.50;99.90
15386;DHT22;7791;47.246;9.648;2022-12-15T03:49:51;2.50;99.90
15386;DHT22;7791;47.246;9.648;2022-12-15T03:52:18;2.60;99.90
15386;DHT22;7791;47.246;9.648;2022-12-15T03:54:44;2.60;99.90
15386;DHT22;7791;47.246;9.648;2022-12-15T03:57:09;2.70;99.90
15386;DHT22;7791;47.246;9.648;2022-12-15T03:59:35;2.50;99.90
15386;DHT22;7791;47.246;9.648;2022-12-15T04:02:01;2.50;99.90
15386;DHT22;7791;47.246;9.648;2022-12-15T04:04:26;2.50;99.90
15386;DHT22;7791;47.246;9.648;2022-12-15T04:06:52;2.50;99.90
15386;DHT22;7791;47.246;9.648;2022-12-15T04:09:19;2.50;99.90
15386;DHT22;7791;47.246;9.648;2022-12-15T04:11:45;2.50;99.90
15386;DHT22;7791;47.246;9.648;2022-12-15T04:14:11;2.60;99.90
15386;DHT22;7791;47.246;9.648;2022-12-15T04:16:36;2.60;99.90
15386;DHT22;7791;47.246;9.648;2022-12-15T04:19:02;2.50;99.90
15386;DHT22;7791;47.246;9.648;2022-12-15T04:21:28;2.50;99.90
15386;DHT22;7791;47.246;9.648;2022-12-15T04:23:53;2.50;99.90
15386;DHT22;7791;47.246;9.648;2022-12-15T04:26:20;2.60;99.90
15386;DHT22;7791;47.246;9.648;2022-12-15T04:28:46;2.50;99.90
15386;DHT22;7791;47.246;9.648;2022-12-15T04:31:14;2.60;99.90
15386;DHT22;7791;47.246;9.648;2022-12-15T04:33:44;2.40;99.90
15386;DHT22;7791;47.246;9.648;2022-12-15T04:36:12;2.40;99.90
15386;DHT22;7791;47.246;9.648;2022-12-15T04:38:38;2.40;99.90
15386;DHT22;7791;47.246;9.648;2022-12-15T04:41:04;2.50;99.90
15386;DHT22;7791;47.246;9.648;2022-12-15T04:43:56;2.50;99.90
15386;DHT22;7791;47.246;9.648;2022-12-15T04:46:21;2.60;99.90
15386;DHT22;7791;47.246;9.648;2022-12-15T04:48:47;2.50;99.90
15386;DHT22;7791;47.246;9.648;2022-12-15T04:51:13;2.50;99.90
15386;DHT22;7791;47.246;9.648;2022-12-15T04:53:39;2.60;99.90
15386;DHT22;7791;47.246;9.648;2022-12-15T04:56:09;2.60;99.90
15386;DHT22;7791;47.246;9.648;2022-12-15T04:58:35;2.60;99.90
15386;DHT22;7791;47.246;9.648;2022-12-15T05:01:02;2.60;99.90
15386;DHT22;7791;47.246;9.648;2022-12-15T05:03:28;2.40;99.90
15386;DHT22;7791;47.246;9.648;2022-12-15T05:05:54;2.30;99.90
15386;DHT22;7791;47.246;9.648;2022-12-15T05:08:19;2.30;99.90
15386;DHT22;7791;47.246;9.648;2022-12-15T05:10:45;2.50;99.90
15386;DHT22;7791;47.246;9.648;2022-12-15T05:13:11;2.50;99.90
15386;DHT22;7791;47.246;9.648;2022-12-15T05:15:46;2.50;99.90
15386;DHT22;7791;47.246;9.648;2022-12-15T05:18:13;2.60;99.90
15386;DHT22;7791;47.246;9.648;2022-12-15T05:20:39;2.60;99.90
15386;DHT22;7791;47.246;9.648;2022-12-15T05:23:04;2.60;99.90
15386;DHT22;7791;47.246;9.648;2022-12-15T05:25:30;2.60;99.90
15386;DHT22;7791;47.246;9.648;2022-12-15T05:27:56;2.60;99.90
15386;DHT22;7791;47.246;9.648;2022-12-15T05:30:21;2.60;99.90
15386;DHT22;7791;47.246;9.648;2022-12-15T05:32:47;2.60;99.90
15386;DHT22;7791;47.246;9.648;2022-12-15T05:35:14;2.60;99.90
15386;DHT22;7791;47.246;9.648;2022-12-15T05:37:40;2.30;99.90
15386;DHT22;7791;47.246;9.648;2022-12-15T05:40:07;2.40;99.90
15386;DHT22;7791;47.246;9.648;2022-12-15T05:42:33;2.40;99.90
15386;DHT22;7791;47.246;9.648;2022-12-15T05:44:59;2.30;99.90
15386;DHT22;7791;47.246;9.648;2022-12-15T05:47:25;2.40;99.90
15386;DHT22;7791;47.246;9.648;2022-12-15T05:49:50;2.30;99.90
15386;DHT22;7791;47.246;9.648;2022-12-15T05:52:18;2.40;99.90
15386;DHT22;7791;47.246;9.648;2022-12-15T05:54:43;2.40;99.90
15386;DHT22;7791;47.246;9.648;2022-12-15T05:57:09;2.40;99.90
15386;DHT22;7791;47.246;9.648;2022-12-15T05:59:38;2.40;99.90
15386;DHT22;7791;47.246;9.648;2022-12-15T06:02:05;2.40;99.90
15386;DHT22;7791;47.246;9.648;2022-12-15T06:04:31;2.40;99.90
15386;DHT22;7791;47.246;9.648;2022-12-15T06:06:58;2.40;99.90
15386;DHT22;7791;47.246;9.648;2022-12-15T06:09:28;2.30;99.90
15386;DHT22;7791;47.246;9.648;2022-12-15T06:11:55;2.30;99.90
15386;DHT22;7791;47.246;9.648;2022-12-15T06:14:21;2.30;99.90
15386;DHT22;7791;47.246;9.648;2022-12-15T06:16:47;2.30;99.90
15386;DHT22;7791;47.246;9.648;2022-12-15T06:19:13;2.20;99.90
15386;DHT22;7791;47.246;9.648;2022-12-15T06:21:38;2.20;99.90
15386;DHT22;7791;47.246;9.648;2022-12-15T06:24:07;2.20;99.90
15386;DHT22;7791;47.246;9.648;2022-12-15T06:26:35;2.30;99.90
15386;DHT22;7791;47.246;9.648;2022-12-15T06:29:03;2.30;99.90
15386;DHT22;7791;47.246;9.648;2022-12-15T06:31:31;2.40;99.90
15386;DHT22;7791;47.246;9.648;2022-12-15T06:33:57;2.40;99.90
15386;DHT22;7791;47.246;9.648;2022-12-15T06:36:24;2.40;99.90
15386;DHT22;7791;47.246;9.648;2022-12-15T06:38:50;2.40;99.90
15386;DHT22;7791;47.246;9.648;2022-12-15T06:41:18;2.50;99.90
15386;DHT22;7791;47.246;9.648;2022-12-15T06:43:50;2.30;99.90
15386;DHT22;7791;47.246;9.648;2022-12-15T06:46:16;2.20;99.90
15386;DHT22;7791;47.246;9.648;2022-12-15T06:48:41;2.20;99.90
15386;DHT22;7791;47.246;9.648;2022-12-15T06:51:07;2.00;99.90
15386;DHT22;7791;47.246;9.648;2022-12-15T06:53:35;1.90;99.90
15386;DHT22;7791;47.246;9.648;2022-12-15T06:56:03;1.70;99.90
15386;DHT22;7791;47.246;9.648;2022-12-15T06:58:30;1.70;99.90
15386;DHT22;7791;47.246;9.648;2022-12-15T07:01:06;1.70;99.90
15386;DHT22;7791;47.246;9.648;2022-12-15T07:03:32;1.90;99.90
15386;DHT22;7791;47.246;9.648;2022-12-15T07:06:02;2.10;99.90
15386;DHT22;7791;47.246;9.648;2022-12-15T07:08:29;2.30;99.90
15386;DHT22;7791;47.246;9.648;2022-12-15T07:10:54;2.40;99.90
15386;DHT22;7791;47.246;9.648;2022-12-15T07:13:20;2.40;99.90
15386;DHT22;7791;47.246;9.648;2022-12-15T07:15:46;2.50;99.90
15386;DHT22;7791;47.246;9.648;2022-12-15T07:18:14;2.50;99.90
15386;DHT22;7791;47.246;9.648;2022-12-15T07:20:40;2.50;99.90
15386;DHT22;7791;47.246;9.648;2022-12-15T07:23:06;2.60;99.90
15386;DHT22;7791;47.246;9.648;2022-12-15T07:25:32;2.60;99.90
15386;DHT22;7791;47.246;9.648;2022-12-15T07:27:58;2.70;99.90
15386;DHT22;7791;47.246;9.648;2022-12-15T07:30:23;2.80;99.90
15386;DHT22;7791;47.246;9.648;2022-12-15T07:32:49;2.80;99.90
15386;DHT22;7791;47.246;9.648;2022-12-15T07:35:17;2.70;99.90
15386;DHT22;7791;47.246;9.648;2022-12-15T07:37:43;2.20;99.90
15386;DHT22;7791;47.246;9.648;2022-12-15T07:40:09;2.10;99.90
15386;DHT22;7791;47.246;9.648;2022-12-15T07:42:35;2.40;99.90
15386;DHT22;7791;47.246;9.648;2022-12-15T07:45:01;2.40;99.90
15386;DHT22;7791;47.246;9.648;2022-12-15T07:47:32;2.50;99.90
15386;DHT22;7791;47.246;9.648;2022-12-15T07:49:58;2.40;99.90
15386;DHT22;7791;47.246;9.648;2022-12-15T07:52:25;2.60;99.90
15386;DHT22;7791;47.246;9.648;2022-12-15T07:54:51;2.70;99.90
15386;DHT22;7791;47.246;9.648;2022-12-15T07:57:17;2.80;99.90
15386;DHT22;7791;47.246;9.648;2022-12-15T07:59:43;2.90;99.90
15386;DHT22;7791;47.246;9.648;2022-12-15T08:02:10;3.00;99.90
15386;DHT22;7791;47.246;9.648;2022-12-15T08:04:36;3.00;99.90
15386;DHT22;7791;47.246;9.648;2022-12-15T08:07:02;3.10;99.90
15386;DHT22;7791;47.246;9.648;2022-12-15T08:09:51;3.10;99.90
15386;DHT22;7791;47.246;9.648;2022-12-15T08:12:17;3.10;99.90
15386;DHT22;7791;47.246;9.648;2022-12-15T08:14:43;3.10;99.90
15386;DHT22;7791;47.246;9.648;2022-12-15T08:17:09;3.20;99.90
15386;DHT22;7791;47.246;9.648;2022-12-15T08:19:34;3.30;99.90
15386;DHT22;7791;47.246;9.648;2022-12-15T08:22:00;3.40;99.90
15386;DHT22;7791;47.246;9.648;2022-12-15T08:24:26;3.60;99.90
15386;DHT22;7791;47.246;9.648;2022-12-15T08:26:53;3.60;99.90
15386;DHT22;7791;47.246;9.648;2022-12-15T08:29:19;3.60;99.90
15386;DHT22;7791;47.246;9.648;2022-12-15T08:31:45;3.70;99.90
15386;DHT22;7791;47.246;9.648;2022-12-15T08:34:11;3.70;99.90
15386;DHT22;7791;47.246;9.648;2022-12-15T08:36:37;3.70;99.90
15386;DHT22;7791;47.246;9.648;2022-12-15T08:39:03;3.70;99.90
15386;DHT22;7791;47.246;9.648;2022-12-15T08:41:29;3.80;99.90
15386;DHT22;7791;47.246;9.648;2022-12-15T08:43:58;3.90;99.90
15386;DHT22;7791;47.246;9.648;2022-12-15T08:46:25;3.90;99.90
15386;DHT22;7791;47.246;9.648;2022-12-15T08:48:52;4.00;99.90
15386;DHT22;7791;47.246;9.648;2022-12-15T08:51:20;4.00;99.90
15386;DHT22;7791;47.246;9.648;2022-12-15T08:53:46;3.90;99.90
15386;DHT22;7791;47.246;9.648;2022-12-15T08:56:14;4.00;99.90
15386;DHT22;7791;47.246;9.648;2022-12-15T08:58:40;3.90;99.90
15386;DHT22;7791;47.246;9.648;2022-12-15T09:01:09;3.60;99.90
15386;DHT22;7791;47.246;9.648;2022-12-15T09:03:36;3.70;99.90
15386;DHT22;7791;47.246;9.648;2022-12-15T09:06:03;3.90;99.90
15386;DHT22;7791;47.246;9.648;2022-12-15T09:08:28;3.90;99.90
15386;DHT22;7791;47.246;9.648;2022-12-15T09:10:56;3.90;99.90
15386;DHT22;7791;47.246;9.648;2022-12-15T09:13:22;4.20;99.90
15386;DHT22;7791;47.246;9.648;2022-12-15T09:15:54;4.40;99.90
15386;DHT22;7791;47.246;9.648;2022-12-15T09:18:23;4.60;99.90
15386;DHT22;7791;47.246;9.648;2022-12-15T09:20:49;4.70;99.90
15386;DHT22;7791;47.246;9.648;2022-12-15T09:23:15;4.80;99.90
15386;DHT22;7791;47.246;9.648;2022-12-15T09:25:41;4.90;99.90
15386;DHT22;7791;47.246;9.648;2022-12-15T09:28:07;4.80;99.90
15386;DHT22;7791;47.246;9.648;2022-12-15T09:30:32;4.90;99.90
15386;DHT22;7791;47.246;9.648;2022-12-15T09:32:59;4.90;99.90
15386;DHT22;7791;47.246;9.648;2022-12-15T09:35:26;5.00;99.90
15386;DHT22;7791;47.246;9.648;2022-12-15T09:37:52;5.10;99.90
15386;DHT22;7791;47.246;9.648;2022-12-15T09:40:18;5.20;99.90
15386;DHT22;7791;47.246;9.648;2022-12-15T09:42:49;5.30;99.90
15386;DHT22;7791;47.246;9.648;2022-12-15T09:45:19;5.40;99.90
15386;DHT22;7791;47.246;9.648;2022-12-15T09:47:50;5.50;99.90
15386;DHT22;7791;47.246;9.648;2022-12-15T09:50:23;5.60;99.90
15386;DHT22;7791;47.246;9.648;2022-12-15T09:52:53;5.60;99.90
15386;DHT22;7791;47.246;9.648;2022-12-15T09:55:22;5.20;99.90
15386;DHT22;7791;47.246;9.648;2022-12-15T09:57:51;5.10;99.90
15386;DHT22;7791;47.246;9.648;2022-12-15T10:00:20;5.10;99.90
15386;DHT22;7791;47.246;9.648;2022-12-15T10:03:26;5.20;99.90
15386;DHT22;7791;47.246;9.648;2022-12-15T10:06:05;5.20;99.90
15386;DHT22;7791;47.246;9.648;2022-12-15T10:08:35;5.20;99.90
15386;DHT22;7791;47.246;9.648;2022-12-15T10:11:04;5.30;99.90
15386;DHT22;7791;47.246;9.648;2022-12-15T10:13:39;5.40;99.90
15386;DHT22;7791;47.246;9.648;2022-12-15T10:16:17;5.50;99.90
15386;DHT22;7791;47.246;9.648;2022-12-15T10:18:53;5.50;99.90
15386;DHT22;7791;47.246;9.648;2022-12-15T10:21:20;5.60;99.90
15386;DHT22;7791;47.246;9.648;2022-12-15T10:23:48;5.20;99.90
15386;DHT22;7791;47.246;9.648;2022-12-15T10:26:18;5.00;99.90
15386;DHT22;7791;47.246;9.648;2022-12-15T10:28:54;4.40;99.90
15386;DHT22;7791;47.246;9.648;2022-12-15T10:31:34;4.40;99.90
15386;DHT22;7791;47.246;9.648;2022-12-15T10:34:08;4.70;99.90
15386;DHT22;7791;47.246;9.648;2022-12-15T10:36:34;4.70;99.90
15386;DHT22;7791;47.246;9.648;2022-12-15T10:39:02;4.80;99.90
15386;DHT22;7791;47.246;9.648;2022-12-15T10:41:31;4.80;99.90
15386;DHT22;7791;47.246;9.648;2022-12-15T10:43:57;4.30;99.90
15386;DHT22;7791;47.246;9.648;2022-12-15T10:46:24;4.10;99.90
15386;DHT22;7791;47.246;9.648;2022-12-15T10:48:52;3.90;99.90
15386;DHT22;7791;47.246;9.648;2022-12-15T10:51:22;3.80;99.90
15386;DHT22;7791;47.246;9.648;2022-12-15T10:53:52;3.80;99.90
15386;DHT22;7791;47.246;9.648;2022-12-15T10:56:23;3.80;99.90
15386;DHT22;7791;47.246;9.648;2022-12-15T10:58:51;3.90;99.90
15386;DHT22;7791;47.246;9.648;2022-12-15T11:01:19;4.10;99.90
15386;DHT22;7791;47.246;9.648;2022-12-15T11:03:45;4.30;99.90
15386;DHT22;7791;47.246;9.648;2022-12-15T11:06:15;4.50;99.90
15386;DHT22;7791;47.246;9.648;2022-12-15T11:08:42;4.70;99.90
15386;DHT22;7791;47.246;9.648;2022-12-15T11:11:26;4.90;99.90
15386;DHT22;7791;47.246;9.648;2022-12-15T11:14:04;5.10;99.90
15386;DHT22;7791;47.246;9.648;2022-12-15T11:16:30;5.10;99.90
15386;DHT22;7791;47.246;9.648;2022-12-15T11:19:03;4.40;99.90
15386;DHT22;7791;47.246;9.648;2022-12-15T11:21:35;4.20;99.90
15386;DHT22;7791;47.246;9.648;2022-12-15T11:24:08;4.30;99.90
15386;DHT22;7791;47.246;9.648;2022-12-15T11:26:45;4.50;99.90
15386;DHT22;7791;47.246;9.648;2022-12-15T11:29:24;4.50;99.90
15386;DHT22;7791;47.246;9.648;2022-12-15T11:31:52;4.50;99.90
15386;DHT22;7791;47.246;9.648;2022-12-15T11:34:20;4.50;99.90
15386;DHT22;7791;47.246;9.648;2022-12-15T11:37:06;4.60;99.90
15386;DHT22;7791;47.246;9.648;2022-12-15T11:39:45;4.80;99.90
15386;DHT22;7791;47.246;9.648;2022-12-15T11:42:21;4.90;99.90
15386;DHT22;7791;47.246;9.648;2022-12-15T11:44:56;5.00;99.90
15386;DHT22;7791;47.246;9.648;2022-12-15T11:47:33;5.00;99.90
15386;DHT22;7791;47.246;9.648;2022-12-15T11:55:43;4.90;99.90
15386;DHT22;7791;47.246;9.648;2022-12-15T11:58:31;4.80;99.90
15386;DHT22;7791;47.246;9.648;2022-12-15T12:01:04;4.60;99.90
15386;DHT22;7791;47.246;9.648;2022-12-15T12:03:42;4.70;99.90
15386;DHT22;7791;47.246;9.648;2022-12-15T12:06:12;4.80;99.90
15386;DHT22;7791;47.246;9.648;2022-12-15T12:08:48;4.90;99.90
15386;DHT22;7791;47.246;9.648;2022-12-15T12:11:20;5.00;99.90
15386;DHT22;7791;47.246;9.648;2022-12-15T12:13:58;5.00;99.90
15386;DHT22;7791;47.246;9.648;2022-12-15T12:16:33;5.10;99.90
15386;DHT22;7791;47.246;9.648;2022-12-15T12:19:05;5.10;99.90
15386;DHT22;7791;47.246;9.648;2022-12-15T12:21:36;5.10;99.90
15386;DHT22;7791;47.246;9.648;2022-12-15T12:24:12;5.10;99.90
15386;DHT22;7791;47.246;9.648;2022-12-15T12:26:42;5.10;99.90
15386;DHT22;7791;47.246;9.648;2022-12-15T12:29:15;5.10;99.90
15386;DHT22;7791;47.246;9.648;2022-12-15T12:31:50;5.00;99.90
15386;DHT22;7791;47.246;9.648;2022-12-15T12:34:25;4.90;99.90
15386;DHT22;7791;47.246;9.648;2022-12-15T12:36:53;5.00;99.90
15386;DHT22;7791;47.246;9.648;2022-12-15T12:39:22;4.90;99.90
15386;DHT22;7791;47.246;9.648;2022-12-15T12:41:55;4.60;99.90
15386;DHT22;7791;47.246;9.648;2022-12-15T12:44:29;4.80;99.90
15386;DHT22;7791;47.246;9.648;2022-12-15T12:46:57;4.80;99.90
15386;DHT22;7791;47.246;9.648;2022-12-15T12:49:28;4.60;99.90
15386;DHT22;7791;47.246;9.648;2022-12-15T12:51:57;4.60;99.90
15386;DHT22;7791;47.246;9.648;2022-12-15T12:54:39;4.60;99.90
15386;DHT22;7791;47.246;9.648;2022-12-15T13:00:20;4.50;99.90
15386;DHT22;7791;47.246;9.648;2022-12-15T13:03:12;4.80;99.90
15386;DHT22;7791;47.246;9.648;2022-12-15T13:05:39;4.90;99.90
15386;DHT22;7791;47.246;9.648;2022-12-15T13:08:48;5.00;99.90
15386;DHT22;7791;47.246;9.648;2022-12-15T13:17:15;4.90;99.90
15386;DHT22;7791;47.246;9.648;2022-12-15T13:20:05;5.00;99.90
15386;DHT22;7791;47.246;9.648;2022-12-15T13:22:39;4.80;99.90
15386;DHT22;7791;47.246;9.648;2022-12-15T13:28:26;4.60;99.90
15386;DHT22;7791;47.246;9.648;2022-12-15T13:37:42;5.00;99.90
15386;DHT22;7791;47.246;9.648;2022-12-15T13:40:30;4.80;99.90
15386;DHT22;7791;47.246;9.648;2022-12-15T13:42:58;4.60;99.90
15386;DHT22;7791;47.246;9.648;2022-12-15T13:45:39;4.60;99.90
15386;DHT22;7791;47.246;9.648;2022-12-15T13:48:29;4.70;99.90
15386;DHT22;7791;47.246;9.648;2022-12-15T13:51:03;4.80;99.90
15386;DHT22;7791;47.246;9.648;2022-12-15T13:53:38;4.80;99.90
15386;DHT22;7791;47.246;9.648;2022-12-15T13:56:22;4.90;99.90
15386;DHT22;7791;47.246;9.648;2022-12-15T13:58:54;5.00;99.90
15386;DHT22;7791;47.246;9.648;2022-12-15T14:01:25;5.00;99.90
15386;DHT22;7791;47.246;9.648;2022-12-15T14:04:01;5.00;99.90
15386;DHT22;7791;47.246;9.648;2022-12-15T14:06:33;5.00;99.90
15386;DHT22;7791;47.246;9.648;2022-12-15T14:09:00;5.00;99.90
15386;DHT22;7791;47.246;9.648;2022-12-15T14:11:29;5.00;99.90
15386;DHT22;7791;47.246;9.648;2022-12-15T14:13:58;5.00;99.90
15386;DHT22;7791;47.246;9.648;2022-12-15T14:16:25;5.00;99.90
15386;DHT22;7791;47.246;9.648;2022-12-15T14:19:09;4.70;99.90
15386;DHT22;7791;47.246;9.648;2022-12-15T14:21:37;4.50;99.90
15386;DHT22;7791;47.246;9.648;2022-12-15T14:24:15;4.20;99.90
15386;DHT22;7791;47.246;9.648;2022-12-15T14:26:45;4.30;99.90
15386;DHT22;7791;47.246;9.648;2022-12-15T14:29:11;4.50;99.90
15386;DHT22;7791;47.246;9.648;2022-12-15T14:31:37;4.40;99.90
15386;DHT22;7791;47.246;9.648;2022-12-15T14:34:09;4.40;99.90
15386;DHT22;7791;47.246;9.648;2022-12-15T14:36:36;4.20;99.90
15386;DHT22;7791;47.246;9.648;2022-12-15T14:39:05;4.00;99.90
15386;DHT22;7791;47.246;9.648;2022-12-15T14:41:33;4.10;99.90
15386;DHT22;7791;47.246;9.648;2022-12-15T14:44:02;4.30;99.90
15386;DHT22;7791;47.246;9.648;2022-12-15T14:46:29;4.40;99.90
15386;DHT22;7791;47.246;9.648;2022-12-15T14:49:01;4.50;99.90
15386;DHT22;7791;47.246;9.648;2022-12-15T14:51:28;4.50;99.90
15386;DHT22;7791;47.246;9.648;2022-12-15T14:53:55;4.50;99.90
15386;DHT22;7791;47.246;9.648;2022-12-15T14:56:26;4.40;99.90
15386;DHT22;7791;47.246;9.648;2022-12-15T14:58:55;4.30;99.90
15386;DHT22;7791;47.246;9.648;2022-12-15T15:01:23;4.20;99.90
15386;DHT22;7791;47.246;9.648;2022-12-15T15:03:57;4.00;99.90
15386;DHT22;7791;47.246;9.648;2022-12-15T15:06:28;3.90;99.90
15386;DHT22;7791;47.246;9.648;2022-12-15T15:08:54;3.70;99.90
15386;DHT22;7791;47.246;9.648;2022-12-15T15:11:24;3.70;99.90
15386;DHT22;7791;47.246;9.648;2022-12-15T15:13:54;3.90;99.90
15386;DHT22;7791;47.246;9.648;2022-12-15T15:16:20;3.70;99.90
15386;DHT22;7791;47.246;9.648;2022-12-15T15:18:49;3.70;99.90
15386;DHT22;7791;47.246;9.648;2022-12-15T15:21:18;3.80;99.90
15386;DHT22;7791;47.246;9.648;2022-12-15T15:23:57;3.80;99.90
15386;DHT22;7791;47.246;9.648;2022-12-15T15:26:25;3.70;99.90
15386;DHT22;7791;47.246;9.648;2022-12-15T15:28:52;3.80;99.90
15386;DHT22;7791;47.246;9.648;2022-12-15T15:31:26;3.70;99.90
15386;DHT22;7791;47.246;9.648;2022-12-15T15:33:53;3.90;99.90
15386;DHT22;7791;47.246;9.648;2022-12-15T15:36:19;4.00;99.90
15386;DHT22;7791;47.246;9.648;2022-12-15T15:38:46;4.00;99.90
15386;DHT22;7791;47.246;9.648;2022-12-15T15:41:15;4.10;99.90
15386;DHT22;7791;47.246;9.648;2022-12-15T15:43:43;4.20;99.90
15386;DHT22;7791;47.246;9.648;2022-12-15T15:46:11;4.20;99.90
15386;DHT22;7791;47.246;9.648;2022-12-15T15:48:42;4.10;99.90
15386;DHT22;7791;47.246;9.648;2022-12-15T15:51:09;4.20;99.90
15386;DHT22;7791;47.246;9.648;2022-12-15T15:53:36;4.20;99.90
15386;DHT22;7791;47.246;9.648;2022-12-15T15:56:03;4.30;99.90
15386;DHT22;7791;47.246;9.648;2022-12-15T15:58:30;4.30;99.90
15386;DHT22;7791;47.246;9.648;2022-12-15T16:00:57;4.30;99.90
15386;DHT22;7791;47.246;9.648;2022-12-15T16:03:23;4.30;99.90
15386;DHT22;7791;47.246;9.648;2022-12-15T16:05:49;4.10;99.90
15386;DHT22;7791;47.246;9.648;2022-12-15T16:08:17;4.10;99.90
15386;DHT22;7791;47.246;9.648;2022-12-15T16:10:45;4.20;99.90
15386;DHT22;7791;47.246;9.648;2022-12-15T16:13:13;4.10;99.90
15386;DHT22;7791;47.246;9.648;2022-12-15T16:15:39;4.20;99.90
15386;DHT22;7791;47.246;9.648;2022-12-15T16:18:07;4.20;99.90
15386;DHT22;7791;47.246;9.648;2022-12-15T16:20:33;4.20;99.90
15386;DHT22;7791;47.246;9.648;2022-12-15T16:23:01;4.30;99.90
15386;DHT22;7791;47.246;9.648;2022-12-15T16:25:30;4.30;99.90
15386;DHT22;7791;47.246;9.648;2022-12-15T16:27:57;4.30;99.90
15386;DHT22;7791;47.246;9.648;2022-12-15T16:30:25;4.30;99.90
15386;DHT22;7791;47.246;9.648;2022-12-15T16:32:51;4.20;99.90
15386;DHT22;7791;47.246;9.648;2022-12-15T16:35:19;4.20;99.90
15386;DHT22;7791;47.246;9.648;2022-12-15T16:37:45;4.20;99.90
15386;DHT22;7791;47.246;9.648;2022-12-15T16:40:19;4.10;99.90
15386;DHT22;7791;47.246;9.648;2022-12-15T16:42:51;3.90;99.90